Time;durP1;ratioP1;P1;durP2;ratioP2;P2;SDS_P1;SDS_P2;PMS_P1;PMS_P2;Temp;Humidity;BMP_temperature;BMP_pressure;BME280_temperature;BME280_humidity;BME280_pressure;Samples;Min_cycle;Max_cycle;Signal;HPM_P1;HPM_P2
2022/10/11 00:01:26;;;;;;;10.30;5.82;;;;;;;15.24;82.74;98794.34;7380712;19;20359;-70
2022/10/11 00:03:53;;;;;;;14.38;6.45;;;;;;;15.22;82.59;98793.69;7380496;19;20014;-69
2022/10/11 00:06:19;;;;;;;17.35;6.72;;;;;;;15.16;82.64;98791.72;7380894;19;20339;-69
2022/10/11 00:08:46;;;;;;;15.85;6.70;;;;;;;15.13;82.43;98787.56;7382325;19;20026;-70
2022/10/11 00:11:13;;;;;;;14.52;6.18;;;;;;;15.15;82.30;98796.22;7380157;19;20014;-69
2022/10/11 00:13:39;;;;;;;13.88;7.20;;;;;;;15.02;82.23;98792.47;7380403;19;20532;-69
2022/10/11 00:16:08;;;;;;;10.10;5.97;;;;;;;14.98;82.28;98789.34;7380930;19;20042;-70
2022/10/11 00:18:35;;;;;;;11.80;5.93;;;;;;;14.98;82.17;98791.13;7381418;19;20560;-69
2022/10/11 00:21:04;;;;;;;12.50;6.18;;;;;;;14.92;81.90;98795.34;7376630;19;20065;-69
2022/10/11 00:23:32;;;;;;;12.60;5.53;;;;;;;14.90;82.19;98790.19;7378809;19;20017;-69
2022/10/11 00:25:59;;;;;;;12.20;6.38;;;;;;;14.87;82.20;98790.50;7379342;19;20785;-69
2022/10/11 00:28:27;;;;;;;15.43;6.15;;;;;;;14.82;82.30;98803.53;7381920;19;20010;-69
2022/10/11 00:30:54;;;;;;;17.08;8.00;;;;;;;14.68;82.75;98801.59;7379025;19;20026;-69
2022/10/11 00:33:21;;;;;;;16.90;8.30;;;;;;;14.58;83.25;98795.63;7375590;19;20018;-70
2022/10/11 00:35:47;;;;;;;19.05;8.82;;;;;;;14.57;83.69;98800.13;7381312;19;20054;-69
2022/10/11 00:38:15;;;;;;;14.60;8.20;;;;;;;14.58;83.92;98798.28;7381274;19;20082;-69
2022/10/11 00:40:42;;;;;;;16.58;9.30;;;;;;;14.52;84.08;98802.44;7379621;19;20589;-69
2022/10/11 00:43:18;;;;;;;19.60;9.65;;;;;;;14.52;84.29;98799.78;7376357;19;20052;-69
2022/10/11 00:45:56;;;;;;;23.50;10.65;;;;;;;14.50;84.59;98799.94;7381531;19;20038;-70
2022/10/11 00:48:41;;;;;;;26.48;11.30;;;;;;;14.44;85.11;98797.13;7379508;19;20024;-69
2022/10/11 00:51:25;;;;;;;28.92;10.32;;;;;;;14.50;84.87;98801.78;7380401;19;20022;-69
2022/10/11 00:53:52;;;;;;;19.70;9.55;;;;;;;14.54;84.73;98804.97;7378798;19;20203;-70
2022/10/11 00:56:28;;;;;;;15.57;9.90;;;;;;;14.45;84.85;98812.09;7376437;19;20019;-69
2022/10/11 00:58:56;;;;;;;20.08;10.10;;;;;;;14.50;84.48;98805.25;7377205;19;20052;-69
2022/10/11 01:01:23;;;;;;;18.10;10.23;;;;;;;14.54;84.35;98808.47;7379697;19;20015;-69
2022/10/11 01:03:50;;;;;;;19.40;10.35;;;;;;;14.57;83.96;98810.78;7377482;19;20026;-70
2022/10/11 01:06:16;;;;;;;16.25;10.00;;;;;;;14.50;84.08;98810.56;7377865;19;20019;-70
2022/10/11 01:08:43;;;;;;;19.77;10.60;;;;;;;14.42;84.23;98812.44;7378523;19;20019;-70
2022/10/11 01:11:13;;;;;;;20.88;9.50;;;;;;;14.31;84.55;98810.97;7379320;19;20019;-70
2022/10/11 01:13:52;;;;;;;16.77;10.90;;;;;;;14.33;84.56;98808.97;7374586;19;20014;-69
2022/10/11 01:16:27;;;;;;;20.65;10.02;;;;;;;14.43;84.41;98811.47;7381461;19;20022;-69
2022/10/11 01:19:16;;;;;;;18.27;9.93;;;;;;;14.44;84.21;98821.09;7377761;19;20015;-69
2022/10/11 01:21:51;;;;;;;14.68;9.68;;;;;;;14.43;84.06;98830.09;7378365;19;20026;-69
2022/10/11 01:24:42;;;;;;;22.65;11.10;;;;;;;14.42;84.21;98828.41;7373318;19;20056;-70
2022/10/11 01:27:50;;;;;;;22.58;11.80;;;;;;;14.41;84.19;98822.25;7376813;19;20049;-70
2022/10/11 01:30:31;;;;;;;22.15;11.15;;;;;;;14.57;83.58;98824.09;7374732;19;20018;-70
2022/10/11 01:33:29;;;;;;;17.23;10.13;;;;;;;14.53;83.40;98827.25;7373469;19;20038;-70
2022/10/11 01:36:06;;;;;;;18.85;10.30;;;;;;;14.57;83.46;98824.09;7375939;19;21280;-70
2022/10/11 01:38:39;;;;;;;24.30;11.07;;;;;;;14.63;83.27;98827.91;7374603;19;20014;-70
2022/10/11 01:41:09;;;;;;;21.65;10.20;;;;;;;14.66;83.09;98828.38;7375440;19;20030;-70
2022/10/11 01:43:36;;;;;;;18.95;10.35;;;;;;;14.68;82.85;98825.56;7374125;19;20043;-70
2022/10/11 01:46:03;;;;;;;19.80;10.57;;;;;;;14.56;83.24;98827.75;7376821;19;20050;-70
2022/10/11 01:48:30;;;;;;;19.33;10.65;;;;;;;14.50;83.27;98829.22;7376599;19;20353;-70
2022/10/11 01:51:01;;;;;;;22.50;10.85;;;;;;;14.52;83.55;98826.41;7380096;19;20312;-70
2022/10/11 01:53:29;;;;;;;17.73;11.45;;;;;;;14.41;83.97;98822.25;7371324;19;20007;-70
2022/10/11 01:56:04;;;;;;;25.50;12.48;;;;;;;14.41;84.32;98827.59;7377213;19;20018;-69
2022/10/11 01:58:35;;;;;;;27.33;14.20;;;;;;;14.46;84.73;98830.56;7374459;19;20098;-70
2022/10/11 02:01:22;;;;;;;25.73;14.52;;;;;;;14.48;84.66;98817.94;7375232;19;20023;-70
2022/10/11 02:04:16;;;;;;;26.23;16.27;;;;;;;14.46;84.61;98829.75;7376324;19;20018;-69
2022/10/11 02:06:52;;;;;;;33.90;17.92;;;;;;;14.54;84.42;98834.25;7375271;19;20019;-70
2022/10/11 02:09:30;;;;;;;32.72;18.23;;;;;;;14.58;84.59;98822.25;7374869;19;20018;-69
2022/10/11 02:12:03;;;;;;;32.47;19.10;;;;;;;14.60;84.46;98821.06;7375794;19;20485;-69
2022/10/11 02:14:33;;;;;;;38.33;19.45;;;;;;;14.70;84.02;98826.22;7378500;19;20015;-70
2022/10/11 02:17:06;;;;;;;38.88;18.35;;;;;;;14.69;83.82;98819.22;7376392;19;20022;-70
2022/10/11 02:19:40;;;;;;;32.95;18.42;;;;;;;14.77;83.29;98826.34;7372591;19;20021;-70
2022/10/11 02:22:22;;;;;;;33.72;21.00;;;;;;;14.68;83.37;98820.22;7374349;19;20512;-70
2022/10/11 02:24:51;;;;;;;31.73;20.45;;;;;;;14.66;83.75;98828.38;7373401;19;20027;-70
2022/10/11 02:27:19;;;;;;;38.38;20.40;;;;;;;14.64;83.87;98825.06;7376407;19;20022;-69
2022/10/11 02:29:47;;;;;;;45.30;21.50;;;;;;;14.54;84.54;98828.94;7372915;19;20489;-70
2022/10/11 02:32:16;;;;;;;40.90;21.35;;;;;;;14.54;84.71;98826.28;7373872;19;20551;-69
2022/10/11 02:35:01;;;;;;;34.72;20.52;;;;;;;14.71;84.06;98827.88;7375609;19;20022;-70
2022/10/11 02:37:52;;;;;;;38.28;22.42;;;;;;;14.66;84.17;98832.88;7374702;19;20011;-70
2022/10/11 02:40:26;;;;;;;40.25;21.75;;;;;;;14.55;84.39;98834.06;7377060;19;20011;-70
2022/10/11 02:43:16;;;;;;;44.67;23.35;;;;;;;14.62;84.49;98839.56;7372165;19;20047;-70
2022/10/11 02:45:47;;;;;;;37.13;23.25;;;;;;;14.66;84.36;98838.19;7372657;19;20014;-70
2022/10/11 02:48:14;;;;;;;39.90;22.98;;;;;;;14.61;84.30;98844.06;7374542;19;20046;-70
2022/10/11 02:50:42;;;;;;;47.58;24.58;;;;;;;14.55;84.61;98843.91;7378020;19;20023;-70
2022/10/11 02:53:09;;;;;;;41.97;25.02;;;;;;;14.56;84.51;98840.22;7371798;19;21003;-70
2022/10/11 02:55:35;;;;;;;55.72;25.48;;;;;;;14.66;84.31;98839.03;7374391;19;20014;-70
2022/10/11 02:58:02;;;;;;;43.17;25.02;;;;;;;14.74;84.09;98837.34;7376286;19;20044;-70
2022/10/11 03:00:29;;;;;;;53.88;26.83;;;;;;;14.69;84.24;98838.72;7378690;19;20038;-70
2022/10/11 03:02:56;;;;;;;49.08;24.67;;;;;;;14.71;84.10;98839.34;7381480;19;20042;-70
2022/10/11 03:05:22;;;;;;;42.20;25.42;;;;;;;14.77;83.88;98843.19;7383358;19;20014;-70
2022/10/11 03:07:49;;;;;;;50.05;25.40;;;;;;;14.77;83.91;98840.53;7382672;19;20022;-70
2022/10/11 03:10:16;;;;;;;42.88;24.52;;;;;;;14.77;84.08;98842.34;7384239;19;20014;-70
2022/10/11 03:12:42;;;;;;;44.90;25.17;;;;;;;14.75;84.00;98847.84;7382044;19;20053;-69
2022/10/11 03:15:09;;;;;;;45.10;24.40;;;;;;;14.69;84.07;98854.69;7379679;19;20031;-70
2022/10/11 03:17:36;;;;;;;43.15;24.08;;;;;;;14.70;84.20;98855.50;7378001;19;20015;-70
2022/10/11 03:20:04;;;;;;;39.03;23.88;;;;;;;14.81;83.77;98854.31;7382302;19;20022;-70
2022/10/11 03:22:31;;;;;;;41.10;23.92;;;;;;;14.90;83.89;98856.78;7381853;19;20082;-70
2022/10/11 03:24:58;;;;;;;42.60;23.15;;;;;;;14.98;83.50;98860.41;7383212;19;20034;-70
2022/10/11 03:27:31;;;;;;;38.65;21.85;;;;;;;15.04;83.18;98857.91;7381159;19;20018;-70
2022/10/11 03:29:58;;;;;;;39.65;23.65;;;;;;;15.07;83.14;98867.38;7383679;19;20022;-70
2022/10/11 03:32:25;;;;;;;45.85;24.25;;;;;;;15.07;83.12;98859.41;7381410;19;20045;-70
2022/10/11 03:34:52;;;;;;;38.97;22.15;;;;;;;15.11;82.86;98858.88;7380771;19;20060;-70
2022/10/11 03:37:19;;;;;;;44.25;22.92;;;;;;;15.09;82.95;98862.72;7382819;19;20015;-70
2022/10/11 03:39:45;;;;;;;38.45;22.67;;;;;;;15.04;83.10;98865.91;7382419;19;20018;-70
2022/10/11 03:42:12;;;;;;;41.47;22.63;;;;;;;15.09;82.79;98862.72;7378303;19;20022;-70
2022/10/11 03:44:40;;;;;;;30.42;22.23;;;;;;;15.10;83.05;98859.88;7380907;19;20092;-70
2022/10/11 03:47:08;;;;;;;45.20;25.05;;;;;;;15.10;82.88;98867.88;7383121;19;20018;-70
2022/10/11 03:49:35;;;;;;;40.33;22.73;;;;;;;15.10;82.88;98867.03;7381361;19;20050;-70
2022/10/11 03:52:08;;;;;;;38.22;21.88;;;;;;;15.17;82.69;98876.00;7378068;19;20018;-70
2022/10/11 03:54:34;;;;;;;42.63;23.42;;;;;;;15.13;82.48;98872.84;7380066;19;20018;-70
2022/10/11 03:57:01;;;;;;;43.92;21.67;;;;;;;15.15;82.57;98873.50;7382233;19;20485;-71
2022/10/11 03:59:28;;;;;;;31.35;21.48;;;;;;;15.22;82.47;98872.81;7378669;19;20074;-70
2022/10/11 04:01:54;;;;;;;37.10;21.23;;;;;;;15.25;82.34;98875.97;7377657;19;20078;-69
2022/10/11 04:04:21;;;;;;;33.70;20.88;;;;;;;15.26;82.26;98874.97;7381501;19;20396;-70
2022/10/11 04:06:48;;;;;;;39.50;23.35;;;;;;;15.28;82.21;98878.28;7379855;19;20481;-70
2022/10/11 04:09:14;;;;;;;35.47;21.08;;;;;;;15.30;82.21;98884.28;7382286;19;20405;-69
2022/10/11 04:11:41;;;;;;;29.67;20.05;;;;;;;15.32;82.00;98878.75;7381749;19;20026;-70
2022/10/11 04:14:08;;;;;;;35.00;20.17;;;;;;;15.32;81.86;98876.94;7379311;19;20019;-70
2022/10/11 04:16:37;;;;;;;30.90;19.95;;;;;;;15.36;81.67;98875.59;7376268;19;20018;-70
2022/10/11 04:19:04;;;;;;;29.80;20.27;;;;;;;15.35;81.37;98883.78;7380853;19;20015;-70
2022/10/11 04:21:31;;;;;;;32.17;19.80;;;;;;;15.30;81.31;98886.94;7376229;19;20010;-73
2022/10/11 04:23:57;;;;;;;36.05;19.80;;;;;;;15.29;81.72;98892.44;7378699;19;20414;-72
2022/10/11 04:26:24;;;;;;;31.35;18.88;;;;;;;15.27;81.58;98892.63;7377462;19;20074;-70
2022/10/11 04:28:51;;;;;;;29.33;19.42;;;;;;;15.26;81.62;98895.47;7379680;19;20022;-69
2022/10/11 04:31:18;;;;;;;30.45;18.65;;;;;;;15.28;81.65;98888.94;7379872;19;20018;-70
2022/10/11 04:33:45;;;;;;;32.42;19.83;;;;;;;15.27;81.55;98892.63;7379664;19;20022;-69
2022/10/11 04:36:11;;;;;;;36.95;19.58;;;;;;;15.28;81.56;98894.28;7378046;19;20089;-69
2022/10/11 04:38:38;;;;;;;36.33;19.48;;;;;;;15.27;81.51;98897.09;7379770;19;20098;-71
2022/10/11 04:41:09;;;;;;;35.65;20.95;;;;;;;15.23;81.31;98893.97;7377495;19;20014;-70
2022/10/11 04:43:36;;;;;;;34.78;20.55;;;;;;;15.18;81.37;98892.84;7378810;19;20038;-70
2022/10/11 04:46:04;;;;;;;30.75;20.48;;;;;;;15.19;81.62;98899.81;7380576;19;21243;-70
2022/10/11 04:48:31;;;;;;;37.15;21.05;;;;;;;15.15;81.40;98902.81;7378441;19;20011;-70
2022/10/11 04:50:58;;;;;;;38.08;21.95;;;;;;;15.16;81.54;98900.97;7373803;19;20464;-69
2022/10/11 04:53:24;;;;;;;36.35;22.25;;;;;;;15.18;81.40;98896.31;7375124;19;20042;-70
2022/10/11 04:56:03;;;;;;;43.85;22.88;;;;;;;15.18;81.47;98900.81;7378842;19;20043;-70
2022/10/11 04:58:31;;;;;;;34.25;21.13;;;;;;;15.18;81.42;98898.16;7380070;19;20022;-69
2022/10/11 05:00:58;;;;;;;33.97;20.67;;;;;;;15.20;81.29;98901.50;7377807;19;20044;-69
2022/10/11 05:03:25;;;;;;;37.67;20.83;;;;;;;15.19;81.23;98908.63;7377734;19;20542;-70
2022/10/11 05:05:52;;;;;;;32.08;18.58;;;;;;;15.06;81.36;98906.53;7378107;19;20031;-70
2022/10/11 05:08:19;;;;;;;35.58;19.83;;;;;;;15.07;81.40;98913.50;7376841;19;20060;-70
2022/10/11 05:11:03;;;;;;;34.40;20.45;;;;;;;15.01;81.38;98916.03;7376699;19;20034;-69
2022/10/11 05:13:30;;;;;;;33.53;20.58;;;;;;;14.95;81.34;98914.03;7371581;19;20374;-69
2022/10/11 05:15:56;;;;;;;35.88;21.73;;;;;;;14.87;81.64;98915.72;7380401;19;20019;-69
2022/10/11 05:18:23;;;;;;;37.35;21.50;;;;;;;14.95;81.57;98916.72;7377426;19;20018;-69
2022/10/11 05:21:06;;;;;;;31.15;19.35;;;;;;;14.97;81.55;98914.72;7374991;19;20042;-70
2022/10/11 05:23:35;;;;;;;35.00;21.00;;;;;;;14.95;81.66;98916.72;7374685;19;20086;-69
2022/10/11 05:26:02;;;;;;;38.40;22.00;;;;;;;14.95;81.73;98922.03;7373516;19;20098;-70
2022/10/11 05:28:29;;;;;;;36.53;21.52;;;;;;;14.93;81.69;98920.38;7374404;19;20018;-70
2022/10/11 05:30:56;;;;;;;37.53;20.80;;;;;;;14.96;81.66;98926.38;7373152;19;20726;-70
2022/10/11 05:33:23;;;;;;;37.35;21.13;;;;;;;14.94;81.52;98929.22;7371753;19;20022;-70
2022/10/11 05:35:50;;;;;;;35.65;21.67;;;;;;;14.86;81.57;98927.38;7375096;19;20026;-70
2022/10/11 05:38:17;;;;;;;35.53;21.17;;;;;;;14.91;81.54;98929.56;7375587;19;20113;-70
2022/10/11 05:40:44;;;;;;;39.15;21.05;;;;;;;14.91;81.48;98930.38;7376732;19;20723;-70
2022/10/11 05:43:11;;;;;;;39.70;21.63;;;;;;;14.85;81.59;98936.41;7377138;19;20093;-70
2022/10/11 05:45:38;;;;;;;39.72;21.10;;;;;;;14.92;81.76;98939.19;7380829;19;20114;-70
2022/10/11 05:48:05;;;;;;;43.03;21.77;;;;;;;14.95;81.44;98930.03;7379080;19;20023;-69
2022/10/11 05:50:32;;;;;;;34.40;20.63;;;;;;;14.96;81.49;98939.72;7380357;19;20889;-70
2022/10/11 05:52:59;;;;;;;37.60;21.33;;;;;;;14.90;81.46;98942.03;7377483;19;20018;-70
2022/10/11 05:55:26;;;;;;;34.00;21.63;;;;;;;14.96;81.25;98950.38;7378468;19;20018;-70
2022/10/11 05:57:54;;;;;;;40.83;22.25;;;;;;;14.97;81.37;98950.19;7378239;19;20018;-70
2022/10/11 06:00:21;;;;;;;40.60;22.30;;;;;;;14.95;81.20;98949.50;7380892;19;20046;-70
2022/10/11 06:02:48;;;;;;;43.58;23.48;;;;;;;14.89;81.29;98956.34;7378526;19;20010;-70
2022/10/11 06:05:15;;;;;;;44.03;22.70;;;;;;;14.95;81.32;98962.00;7374821;19;20432;-70
2022/10/11 06:07:42;;;;;;;39.28;22.08;;;;;;;14.86;81.46;98966.53;7374299;19;20082;-70
2022/10/11 06:10:09;;;;;;;44.80;23.85;;;;;;;14.82;81.65;98971.34;7377656;19;20026;-70
2022/10/11 06:12:35;;;;;;;38.85;23.45;;;;;;;14.85;81.62;98973.69;7376413;19;20101;-70
2022/10/11 06:15:03;;;;;;;36.22;20.42;;;;;;;14.87;81.37;98977.00;7379343;19;20035;-70
2022/10/11 06:17:30;;;;;;;42.90;23.35;;;;;;;14.89;81.48;98974.16;7377918;19;20855;-70
2022/10/11 06:19:56;;;;;;;36.15;21.85;;;;;;;14.82;81.42;98979.31;7378820;19;20031;-70
2022/10/11 06:22:23;;;;;;;40.45;21.95;;;;;;;14.90;81.28;98971.34;7379534;19;20018;-70
2022/10/11 06:24:50;;;;;;;38.28;20.42;;;;;;;14.87;81.45;98979.66;7377956;19;20019;-69
2022/10/11 06:27:16;;;;;;;34.40;19.70;;;;;;;14.91;81.35;98977.50;7377064;19;20098;-70
2022/10/11 06:29:43;;;;;;;30.17;20.23;;;;;;;14.90;81.19;98978.50;7379710;19;20510;-70
2022/10/11 06:32:12;;;;;;;31.95;19.77;;;;;;;14.82;80.96;98983.81;7385840;19;20014;-71
2022/10/11 06:34:38;;;;;;;31.52;19.02;;;;;;;14.77;81.26;98991.50;7385722;19;20014;-72
2022/10/11 06:37:05;;;;;;;34.35;19.58;;;;;;;14.79;80.95;98989.50;7384937;19;20529;-72
2022/10/11 06:39:32;;;;;;;33.67;19.10;;;;;;;14.77;81.01;98991.50;7385586;19;20019;-72
2022/10/11 06:41:59;;;;;;;35.75;19.88;;;;;;;14.78;80.90;98991.34;7384101;19;21395;-72
2022/10/11 06:44:25;;;;;;;33.50;18.02;;;;;;;14.83;80.94;98997.00;7384170;19;20026;-72
2022/10/11 06:46:52;;;;;;;36.22;19.30;;;;;;;14.82;81.17;98995.31;7385691;19;20038;-72
2022/10/11 06:49:19;;;;;;;30.23;18.17;;;;;;;14.89;80.95;98995.47;7384195;19;20014;-71
2022/10/11 06:51:49;;;;;;;31.77;17.45;;;;;;;15.00;80.92;99004.97;7386268;19;20089;-72
2022/10/11 06:54:16;;;;;;;29.50;18.33;;;;;;;15.05;80.75;99006.13;7385031;19;20022;-72
2022/10/11 06:56:44;;;;;;;33.17;17.98;;;;;;;15.08;80.90;99010.28;7385674;19;20655;-72
2022/10/11 06:59:12;;;;;;;30.55;17.13;;;;;;;15.06;80.73;99012.28;7386710;19;20022;-72
2022/10/11 07:01:38;;;;;;;28.10;17.42;;;;;;;15.14;80.62;99012.28;7383745;19;20076;-72
2022/10/11 07:04:06;;;;;;;28.60;15.95;;;;;;;15.10;80.59;99021.59;7383802;19;20026;-72
2022/10/11 07:06:36;;;;;;;27.35;17.73;;;;;;;15.13;80.63;99018.59;7384740;19;20489;-72
2022/10/11 07:09:03;;;;;;;28.65;17.10;;;;;;;15.14;80.53;99021.09;7385298;19;20669;-72
2022/10/11 07:11:30;;;;;;;28.23;15.65;;;;;;;15.14;80.49;99022.94;7382864;19;20631;-72
2022/10/11 07:14:06;;;;;;;27.60;16.55;;;;;;;15.17;80.39;99027.09;7384051;19;21050;-71
2022/10/11 07:16:34;;;;;;;28.63;15.73;;;;;;;15.20;80.22;99030.25;7385718;19;20022;-72
2022/10/11 07:19:03;;;;;;;33.90;16.50;;;;;;;15.15;80.28;99036.09;7385352;19;20058;-72
2022/10/11 07:21:31;;;;;;;25.80;17.00;;;;;;;15.24;80.26;99039.56;7379679;19;21328;-72
2022/10/11 07:23:58;;;;;;;27.00;16.63;;;;;;;15.26;80.06;99037.56;7384784;19;20015;-72
2022/10/11 07:26:25;;;;;;;28.92;16.90;;;;;;;15.19;80.04;99039.22;7381803;19;21354;-69
2022/10/11 07:28:51;;;;;;;27.00;16.75;;;;;;;15.20;80.31;99040.09;7384488;19;20010;-69
2022/10/11 07:31:21;;;;;;;26.92;16.50;;;;;;;15.22;80.11;99046.91;7384863;19;20015;-69
2022/10/11 07:33:47;;;;;;;28.15;16.48;;;;;;;15.21;80.18;99047.91;7379250;19;20010;-70
2022/10/11 07:36:14;;;;;;;27.23;17.77;;;;;;;15.20;79.95;99042.75;7382947;19;20477;-69
2022/10/11 07:38:42;;;;;;;28.83;16.98;;;;;;;15.21;79.93;99047.91;7381309;19;20018;-70
2022/10/11 07:41:09;;;;;;;29.73;17.25;;;;;;;15.14;79.90;99052.25;7382619;19;20019;-69
2022/10/11 07:43:37;;;;;;;32.40;17.25;;;;;;;15.08;80.01;99051.06;7381590;19;20018;-70
2022/10/11 07:46:04;;;;;;;30.85;17.13;;;;;;;15.12;80.01;99049.75;7384633;19;20521;-70
2022/10/11 07:48:35;;;;;;;34.22;18.23;;;;;;;15.18;79.76;99048.25;7384662;19;20090;-69
2022/10/11 07:51:08;;;;;;;24.83;17.10;;;;;;;15.22;79.96;99054.91;7383177;19;20035;-69
2022/10/11 07:53:43;;;;;;;34.17;17.95;;;;;;;15.29;79.81;99050.56;7378712;19;21257;-70
2022/10/11 07:56:11;;;;;;;27.48;17.50;;;;;;;15.33;79.71;99051.88;7384237;19;20995;-69
2022/10/11 07:58:39;;;;;;;29.60;18.27;;;;;;;15.44;79.57;99052.53;7382815;19;20112;-70
2022/10/11 08:01:07;;;;;;;34.40;17.95;;;;;;;15.46;79.43;99053.22;7383276;19;20014;-69
2022/10/11 08:03:34;;;;;;;34.83;19.10;;;;;;;15.39;79.14;99060.22;7381265;19;20359;-69
2022/10/11 08:06:04;;;;;;;29.05;17.55;;;;;;;15.43;79.01;99061.53;7383907;19;20026;-69
2022/10/11 08:08:31;;;;;;;33.35;18.13;;;;;;;15.55;79.05;99057.50;7380236;19;20026;-69
2022/10/11 08:10:58;;;;;;;35.72;19.33;;;;;;;15.71;79.10;99057.47;7381627;19;20014;-69
2022/10/11 08:13:25;;;;;;;30.77;17.35;;;;;;;15.80;78.87;99061.78;7380721;19;20022;-70
2022/10/11 08:15:52;;;;;;;30.20;17.75;;;;;;;15.81;78.54;99059.94;7383460;19;20011;-70
2022/10/11 08:18:19;;;;;;;37.10;18.52;;;;;;;15.82;78.69;99061.59;7378360;19;20510;-69
2022/10/11 08:20:46;;;;;;;27.45;16.60;;;;;;;15.92;78.37;99066.75;7380427;19;20023;-70
2022/10/11 08:23:15;;;;;;;32.47;18.13;;;;;;;15.80;78.39;99064.47;7374864;19;20019;-69
2022/10/11 08:25:44;;;;;;;31.80;17.02;;;;;;;15.83;77.99;99065.13;7378153;19;20018;-69
2022/10/11 08:28:15;;;;;;;28.52;16.73;;;;;;;15.86;77.79;99064.78;7372566;19;20540;-70
2022/10/11 08:30:49;;;;;;;24.58;17.17;;;;;;;15.94;77.87;99068.25;7376664;19;20015;-69
2022/10/11 08:33:17;;;;;;;29.77;17.23;;;;;;;15.90;77.84;99074.91;7376036;19;20813;-69
2022/10/11 08:35:44;;;;;;;28.42;17.33;;;;;;;15.99;77.88;99078.41;7375681;19;20019;-70
2022/10/11 08:38:11;;;;;;;29.92;17.10;;;;;;;16.03;77.65;99074.38;7371606;19;20447;-69
2022/10/11 08:40:44;;;;;;;28.60;16.50;;;;;;;15.95;77.42;99077.06;7377159;19;20006;-70
2022/10/11 08:43:22;;;;;;;25.33;15.80;;;;;;;16.00;77.48;99070.19;7375567;19;20018;-69
2022/10/11 08:45:52;;;;;;;26.13;16.65;;;;;;;15.77;77.75;99070.16;7375508;19;20022;-70
2022/10/11 08:48:35;;;;;;;32.88;16.42;;;;;;;15.82;77.95;99072.28;7374709;19;20092;-70
2022/10/11 08:51:14;;;;;;;33.90;17.02;;;;;;;15.83;78.09;99073.13;7378388;19;20473;-69
2022/10/11 08:53:55;;;;;;;28.58;17.13;;;;;;;15.75;78.56;99069.47;7375145;19;20011;-69
2022/10/11 08:56:23;;;;;;;36.30;19.05;;;;;;;15.77;78.48;99075.47;7377996;19;20022;-70
2022/10/11 08:58:58;;;;;;;35.33;18.85;;;;;;;15.90;78.14;99066.09;7377402;19;20481;-70
2022/10/11 09:01:26;;;;;;;28.63;17.33;;;;;;;15.88;77.99;99073.44;7379313;19;20066;-69
2022/10/11 09:03:53;;;;;;;31.92;17.27;;;;;;;15.83;77.88;99067.81;7377253;19;20015;-69
2022/10/11 09:06:30;;;;;;;28.02;18.05;;;;;;;15.96;77.73;99065.41;7378442;19;20026;-69
2022/10/11 09:09:17;;;;;;;32.88;17.33;;;;;;;15.92;77.42;99070.25;7379813;19;20022;-69
2022/10/11 09:12:00;;;;;;;28.45;16.48;;;;;;;15.82;77.49;99066.13;7381079;19;20423;-69
2022/10/11 09:14:47;;;;;;;27.17;17.30;;;;;;;15.83;77.35;99070.47;7377293;19;20029;-69
2022/10/11 09:17:34;;;;;;;29.33;17.38;;;;;;;15.87;77.56;99069.94;7378164;19;20082;-69
2022/10/11 09:20:30;;;;;;;26.25;15.98;;;;;;;15.90;77.05;99068.75;7379159;19;20025;-70
2022/10/11 09:23:04;;;;;;;30.15;16.67;;;;;;;15.80;77.11;99063.63;7379514;19;20014;-69
2022/10/11 09:25:38;;;;;;;26.17;15.57;;;;;;;15.86;77.23;99067.44;7377084;19;20496;-69
2022/10/11 09:28:21;;;;;;;29.83;16.35;;;;;;;16.02;76.87;99070.03;7378153;19;20019;-69
2022/10/11 09:30:50;;;;;;;26.10;16.10;;;;;;;16.11;76.76;99065.50;7381958;19;20473;-70
2022/10/11 09:33:30;;;;;;;28.02;16.10;;;;;;;16.14;76.39;99071.34;7378648;19;20022;-69
2022/10/11 09:35:57;;;;;;;34.17;16.63;;;;;;;16.23;76.28;99072.94;7379500;19;20047;-70
2022/10/11 09:38:45;;;;;;;27.50;15.02;;;;;;;16.40;75.97;99072.84;7378526;19;20387;-69
2022/10/11 09:41:20;;;;;;;25.77;14.95;;;;;;;16.57;75.68;99065.56;7378570;19;20023;-69
2022/10/11 09:43:48;;;;;;;26.83;15.55;;;;;;;16.65;74.99;99065.53;7374141;19;20014;-70
2022/10/11 09:46:21;;;;;;;28.02;15.77;;;;;;;16.57;75.11;99065.56;7380713;19;20687;-68
2022/10/11 09:48:49;;;;;;;26.52;16.08;;;;;;;16.70;75.09;99068.50;7380229;19;20015;-70
2022/10/11 09:51:20;;;;;;;21.08;14.68;;;;;;;16.62;74.61;99073.88;7376867;19;20039;-70
2022/10/11 09:54:03;;;;;;;30.33;15.15;;;;;;;16.66;74.72;99072.50;7375930;19;20014;-70
2022/10/11 09:56:32;;;;;;;27.20;15.43;;;;;;;16.74;74.50;99072.44;7377250;19;20018;-69
2022/10/11 09:59:24;;;;;;;25.33;15.73;;;;;;;16.82;74.24;99080.44;7376427;19;20054;-70
2022/10/11 10:02:13;;;;;;;29.35;15.90;;;;;;;16.83;73.80;99081.28;7378740;19;20357;-69
2022/10/11 10:05:05;;;;;;;22.33;14.27;;;;;;;16.85;73.59;99071.22;7376417;19;20113;-69
2022/10/11 10:07:35;;;;;;;25.52;15.63;;;;;;;16.82;74.20;99082.28;7379525;19;20364;-68
2022/10/11 10:10:26;;;;;;;26.65;15.60;;;;;;;16.80;73.55;99076.31;7378223;19;20014;-69
2022/10/11 10:12:54;;;;;;;23.35;14.93;;;;;;;16.84;73.60;99072.25;7377020;19;20014;-69
2022/10/11 10:15:22;;;;;;;24.67;15.90;;;;;;;16.83;73.16;99066.09;7378245;19;20966;-69
2022/10/11 10:17:50;;;;;;;25.30;16.02;;;;;;;17.08;72.97;99073.88;7377732;19;20018;-70
2022/10/11 10:20:22;;;;;;;21.20;14.07;;;;;;;17.34;72.78;99076.16;7377949;19;20530;-69
2022/10/11 10:22:49;;;;;;;23.45;13.75;;;;;;;17.49;72.42;99079.69;7377385;19;21499;-69
2022/10/11 10:25:21;;;;;;;24.00;14.23;;;;;;;17.42;71.77;99069.91;7376765;19;20965;-69
2022/10/11 10:28:03;;;;;;;28.20;13.52;;;;;;;17.41;71.54;99070.94;7376148;19;20391;-70
2022/10/11 10:30:29;;;;;;;23.92;13.50;;;;;;;17.36;71.57;99070.66;7376451;19;20465;-69
2022/10/11 10:33:05;;;;;;;23.25;13.48;;;;;;;17.35;72.17;99072.47;7377636;19;20029;-69
2022/10/11 10:35:44;;;;;;;22.95;13.68;;;;;;;17.22;71.99;99066.91;7376602;19;20019;-70
2022/10/11 10:38:19;;;;;;;20.63;13.30;;;;;;;17.15;72.12;99068.66;7375066;19;20041;-70
2022/10/11 10:40:55;;;;;;;20.25;13.55;;;;;;;16.87;72.32;99070.03;7376147;19;20056;-70
2022/10/11 10:43:25;;;;;;;22.45;12.10;;;;;;;16.97;72.92;99077.81;7376054;19;20018;-70
2022/10/11 10:46:07;;;;;;;22.35;12.00;;;;;;;16.99;72.70;99078.47;7378777;19;20489;-69
2022/10/11 10:48:37;;;;;;;15.93;11.90;;;;;;;17.08;72.83;99074.72;7372894;19;20022;-69
2022/10/11 10:51:39;;;;;;;22.67;12.63;;;;;;;17.12;72.75;99075.22;7377512;19;20085;-70
2022/10/11 10:54:41;;;;;;;20.90;12.75;;;;;;;16.86;72.32;99071.06;7378501;19;20038;-70
2022/10/11 10:57:26;;;;;;;18.20;11.98;;;;;;;16.92;72.89;99074.84;7376251;19;20086;-69
2022/10/11 11:00:08;;;;;;;19.90;12.23;;;;;;;17.02;73.53;99079.97;7377265;19;20098;-69
2022/10/11 11:03:02;;;;;;;22.63;12.52;;;;;;;17.09;73.60;99071.06;7375724;19;20683;-69
2022/10/11 11:05:37;;;;;;;19.55;12.32;;;;;;;17.18;72.92;99076.31;7371776;19;20068;-69
2022/10/11 11:08:09;;;;;;;17.23;12.43;;;;;;;17.19;73.21;99069.94;7375875;19;20396;-72
2022/10/11 11:10:43;;;;;;;16.05;11.95;;;;;;;16.99;73.10;99066.97;7377001;19;20049;-72
2022/10/11 11:13:18;;;;;;;16.73;12.18;;;;;;;17.12;73.61;99067.19;7375437;19;20018;-72
2022/10/11 11:16:11;;;;;;;17.40;12.60;;;;;;;16.99;72.34;99070.47;7376650;19;20011;-71
2022/10/11 11:18:44;;;;;;;;;;;;;;;17.11;72.67;99066.34;7381079;19;20014;-72
2022/10/11 11:21:39;;;;;;;16.42;12.02;;;;;;;17.19;72.81;99061.94;7384573;19;19922;-71
2022/10/11 11:24:21;;;;;;;19.88;12.73;;;;;;;17.22;72.68;99072.25;7376687;19;20019;-72
2022/10/11 11:27:11;;;;;;;18.17;13.15;;;;;;;16.97;72.47;99059.13;7382539;19;20695;-71
2022/10/11 11:29:49;;;;;;;18.67;12.27;;;;;;;16.95;72.20;99055.78;7378936;19;20027;-75
2022/10/11 11:32:23;;;;;;;18.17;13.13;;;;;;;17.12;72.84;99056.50;7380879;19;20056;-72
2022/10/11 11:35:00;;;;;;;22.73;12.02;;;;;;;17.19;72.41;99053.91;7382374;19;20018;-71
2022/10/11 11:37:33;;;;;;;14.95;11.98;;;;;;;17.38;72.68;99050.72;7379193;19;20117;-74
2022/10/11 11:40:21;;;;;;;21.08;12.70;;;;;;;17.60;72.54;99050.81;7378943;19;20018;-71